sensor_id;sensor_type;location;lat;lon;timestamp;pressure;altitude;pressure_sealevel;temperature;humidity
64292;BME280;50628;51.008;13.658;2023-04-23T00:02:52;98957.03;;;12.70;100.00
64292;BME280;50628;51.008;13.658;2023-04-23T00:07:54;98945.84;;;12.77;100.00
64292;BME280;50628;51.008;13.658;2023-04-23T00:13:00;98944.84;;;12.78;100.00
64292;BME280;50628;51.008;13.658;2023-04-23T00:18:02;98945.75;;;12.61;100.00
64292;BME280;50628;51.008;13.658;2023-04-23T00:23:04;98939.91;;;12.33;100.00
64292;BME280;50628;51.008;13.658;2023-04-23T00:28:07;98931.19;;;12.24;100.00
64292;BME280;50628;51.008;13.658;2023-04-23T00:33:09;98934.28;;;12.20;100.00
64292;BME280;50628;51.008;13.658;2023-04-23T00:38:11;98928.50;;;12.08;100.00
64292;BME280;50628;51.008;13.658;2023-04-23T00:43:14;98928.47;;;12.34;100.00
64292;BME280;50628;51.008;13.658;2023-04-23T00:48:17;98928.13;;;12.29;100.00
64292;BME280;50628;51.008;13.658;2023-04-23T00:53:19;98931.69;;;12.20;100.00
64292;BME280;50628;51.008;13.658;2023-04-23T00:58:22;98928.84;;;12.13;100.00
64292;BME280;50628;51.008;13.658;2023-04-23T01:03:25;98932.72;;;12.09;100.00
64292;BME280;50628;51.008;13.658;2023-04-23T01:08:30;98914.88;;;11.96;100.00
64292;BME280;50628;51.008;13.658;2023-04-23T01:13:34;98920.88;;;12.15;100.00
64292;BME280;50628;51.008;13.658;2023-04-23T01:18:36;98916.63;;;12.13;100.00
64292;BME280;50628;51.008;13.658;2023-04-23T01:23:42;98925.75;;;11.91;100.00
64292;BME280;50628;51.008;13.658;2023-04-23T01:28:45;98920.53;;;11.91;100.00
64292;BME280;50628;51.008;13.658;2023-04-23T01:33:48;98918.25;;;11.88;100.00
64292;BME280;50628;51.008;13.658;2023-04-23T01:38:53;98920.44;;;11.57;100.00
64292;BME280;50628;51.008;13.658;2023-04-23T01:43:56;98930.78;;;11.67;100.00
64292;BME280;50628;51.008;13.658;2023-04-23T01:48:58;98927.56;;;11.55;100.00
64292;BME280;50628;51.008;13.658;2023-04-23T01:54:01;98920.94;;;11.61;100.00
64292;BME280;50628;51.008;13.658;2023-04-23T01:59:03;98922.56;;;11.44;100.00
64292;BME280;50628;51.008;13.658;2023-04-23T02:04:06;98929.38;;;11.37;100.00
64292;BME280;50628;51.008;13.658;2023-04-23T02:09:10;98930.13;;;11.29;100.00
64292;BME280;50628;51.008;13.658;2023-04-23T02:14:12;98913.81;;;11.45;100.00
64292;BME280;50628;51.008;13.658;2023-04-23T02:19:14;98917.66;;;11.59;100.00
64292;BME280;50628;51.008;13.658;2023-04-23T02:24:17;98907.84;;;11.53;100.00
64292;BME280;50628;51.008;13.658;2023-04-23T02:29:19;98913.75;;;11.37;100.00
64292;BME280;50628;51.008;13.658;2023-04-23T02:34:21;98923.78;;;11.32;100.00
64292;BME280;50628;51.008;13.658;2023-04-23T02:39:24;98917.91;;;11.30;100.00
64292;BME280;50628;51.008;13.658;2023-04-23T02:44:26;98921.63;;;11.45;100.00
64292;BME280;50628;51.008;13.658;2023-04-23T02:49:28;98919.63;;;11.57;100.00
64292;BME280;50628;51.008;13.658;2023-04-23T02:54:31;98912.81;;;11.64;100.00
64292;BME280;50628;51.008;13.658;2023-04-23T02:59:33;98916.91;;;11.66;100.00
64292;BME280;50628;51.008;13.658;2023-04-23T03:04:35;98910.94;;;11.74;100.00
64292;BME280;50628;51.008;13.658;2023-04-23T03:09:39;98909.16;;;11.75;100.00
64292;BME280;50628;51.008;13.658;2023-04-23T03:14:42;98899.50;;;11.67;100.00
64292;BME280;50628;51.008;13.658;2023-04-23T03:19:44;98887.09;;;11.69;100.00
64292;BME280;50628;51.008;13.658;2023-04-23T03:24:47;98882.75;;;11.69;100.00
64292;BME280;50628;51.008;13.658;2023-04-23T03:29:49;98869.84;;;11.68;100.00
64292;BME280;50628;51.008;13.658;2023-04-23T03:34:51;98853.34;;;11.59;100.00
64292;BME280;50628;51.008;13.658;2023-04-23T03:39:54;98850.38;;;11.54;100.00
64292;BME280;50628;51.008;13.658;2023-04-23T03:44:58;98853.84;;;11.63;100.00
64292;BME280;50628;51.008;13.658;2023-04-23T03:50:01;98855.06;;;11.77;100.00
64292;BME280;50628;51.008;13.658;2023-04-23T03:55:06;98859.31;;;11.78;100.00
64292;BME280;50628;51.008;13.658;2023-04-23T04:00:16;98851.25;;;11.63;100.00
64292;BME280;50628;51.008;13.658;2023-04-23T04:05:18;98864.03;;;11.56;100.00
64292;BME280;50628;51.008;13.658;2023-04-23T04:10:21;98857.69;;;11.77;100.00
64292;BME280;50628;51.008;13.658;2023-04-23T04:15:23;98868.38;;;11.65;100.00
64292;BME280;50628;51.008;13.658;2023-04-23T04:20:25;98876.50;;;11.62;100.00
64292;BME280;50628;51.008;13.658;2023-04-23T04:25:29;98884.63;;;11.59;100.00
64292;BME280;50628;51.008;13.658;2023-04-23T04:30:31;98885.34;;;11.69;100.00
64292;BME280;50628;51.008;13.658;2023-04-23T04:35:33;98888.06;;;11.86;100.00
64292;BME280;50628;51.008;13.658;2023-04-23T04:40:37;98892.25;;;11.79;100.00
64292;BME280;50628;51.008;13.658;2023-04-23T04:45:39;98891.22;;;11.89;100.00
64292;BME280;50628;51.008;13.658;2023-04-23T04:50:41;98885.78;;;12.09;100.00
64292;BME280;50628;51.008;13.658;2023-04-23T04:55:45;98878.50;;;12.21;100.00
64292;BME280;50628;51.008;13.658;2023-04-23T05:00:47;98883.34;;;12.42;100.00
64292;BME280;50628;51.008;13.658;2023-04-23T05:05:51;98891.72;;;12.53;100.00
64292;BME280;50628;51.008;13.658;2023-04-23T05:10:55;98886.75;;;12.42;100.00
64292;BME280;50628;51.008;13.658;2023-04-23T05:15:57;98896.81;;;12.63;100.00
64292;BME280;50628;51.008;13.658;2023-04-23T05:20:59;98902.41;;;12.76;100.00
64292;BME280;50628;51.008;13.658;2023-04-23T05:26:03;98901.81;;;12.91;100.00
64292;BME280;50628;51.008;13.658;2023-04-23T05:31:05;98904.56;;;12.97;100.00
64292;BME280;50628;51.008;13.658;2023-04-23T05:36:07;98904.28;;;13.09;100.00
64292;BME280;50628;51.008;13.658;2023-04-23T05:41:10;98909.38;;;13.10;100.00
64292;BME280;50628;51.008;13.658;2023-04-23T05:46:12;98905.28;;;13.16;100.00
64292;BME280;50628;51.008;13.658;2023-04-23T05:51:14;98897.16;;;13.35;100.00
64292;BME280;50628;51.008;13.658;2023-04-23T05:56:17;98903.56;;;13.41;100.00
64292;BME280;50628;51.008;13.658;2023-04-23T06:01:20;98897.00;;;13.29;100.00
64292;BME280;50628;51.008;13.658;2023-04-23T06:06:23;98893.91;;;13.50;100.00
64292;BME280;50628;51.008;13.658;2023-04-23T06:11:26;98901.91;;;13.89;100.00
64292;BME280;50628;51.008;13.658;2023-04-23T06:16:28;98904.44;;;14.30;100.00
64292;BME280;50628;51.008;13.658;2023-04-23T06:21:30;98900.44;;;14.59;100.00
64292;BME280;50628;51.008;13.658;2023-04-23T06:26:34;98891.81;;;14.89;100.00
64292;BME280;50628;51.008;13.658;2023-04-23T06:31:44;98900.50;;;15.36;100.00
64292;BME280;50628;51.008;13.658;2023-04-23T06:36:46;98904.28;;;15.79;100.00
64292;BME280;50628;51.008;13.658;2023-04-23T06:41:49;98903.81;;;16.14;100.00
64292;BME280;50628;51.008;13.658;2023-04-23T06:47:07;98914.22;;;16.37;100.00
64292;BME280;50628;51.008;13.658;2023-04-23T06:52:09;98914.38;;;16.50;100.00
64292;BME280;50628;51.008;13.658;2023-04-23T06:57:12;98914.75;;;16.47;100.00
64292;BME280;50628;51.008;13.658;2023-04-23T07:02:14;98919.94;;;16.40;100.00
64292;BME280;50628;51.008;13.658;2023-04-23T07:07:16;98927.63;;;16.42;100.00
64292;BME280;50628;51.008;13.658;2023-04-23T07:12:19;98923.66;;;16.46;100.00
64292;BME280;50628;51.008;13.658;2023-04-23T07:17:21;98927.19;;;16.38;100.00
64292;BME280;50628;51.008;13.658;2023-04-23T07:22:24;98929.16;;;16.36;100.00
64292;BME280;50628;51.008;13.658;2023-04-23T07:27:27;98936.78;;;16.31;100.00
64292;BME280;50628;51.008;13.658;2023-04-23T07:32:29;98930.31;;;16.19;100.00
64292;BME280;50628;51.008;13.658;2023-04-23T07:37:31;98929.94;;;16.07;100.00
64292;BME280;50628;51.008;13.658;2023-04-23T07:42:34;98940.91;;;16.11;100.00
64292;BME280;50628;51.008;13.658;2023-04-23T07:47:36;98942.91;;;16.09;100.00
64292;BME280;50628;51.008;13.658;2023-04-23T07:52:38;98940.28;;;16.23;100.00
64292;BME280;50628;51.008;13.658;2023-04-23T07:57:42;98939.75;;;16.58;100.00
64292;BME280;50628;51.008;13.658;2023-04-23T08:02:44;98943.22;;;16.58;100.00
64292;BME280;50628;51.008;13.658;2023-04-23T08:07:46;98926.59;;;16.58;100.00
64292;BME280;50628;51.008;13.658;2023-04-23T08:12:50;98929.78;;;16.83;100.00
64292;BME280;50628;51.008;13.658;2023-04-23T08:17:51;98926.69;;;16.94;100.00
64292;BME280;50628;51.008;13.658;2023-04-23T08:22:53;98922.53;;;16.85;100.00
64292;BME280;50628;51.008;13.658;2023-04-23T08:27:57;98940.88;;;16.78;100.00
64292;BME280;50628;51.008;13.658;2023-04-23T08:32:59;98935.31;;;16.88;100.00
64292;BME280;50628;51.008;13.658;2023-04-23T08:38:01;98934.75;;;16.93;100.00
64292;BME280;50628;51.008;13.658;2023-04-23T08:43:09;98946.09;;;16.93;100.00
64292;BME280;50628;51.008;13.658;2023-04-23T08:48:13;98961.78;;;16.86;100.00
64292;BME280;50628;51.008;13.658;2023-04-23T08:53:17;98961.59;;;16.73;100.00
64292;BME280;50628;51.008;13.658;2023-04-23T08:58:22;98968.78;;;16.79;100.00
64292;BME280;50628;51.008;13.658;2023-04-23T09:03:25;98971.22;;;16.81;100.00
64292;BME280;50628;51.008;13.658;2023-04-23T09:08:29;98973.53;;;17.05;100.00
64292;BME280;50628;51.008;13.658;2023-04-23T09:13:32;98993.06;;;16.96;100.00
64292;BME280;50628;51.008;13.658;2023-04-23T09:18:36;98979.53;;;16.99;100.00
64292;BME280;50628;51.008;13.658;2023-04-23T09:23:38;98989.84;;;17.01;100.00
64292;BME280;50628;51.008;13.658;2023-04-23T09:28:42;98988.50;;;17.05;100.00
64292;BME280;50628;51.008;13.658;2023-04-23T09:33:49;98986.22;;;17.17;100.00
64292;BME280;50628;51.008;13.658;2023-04-23T09:38:55;98980.28;;;17.29;100.00
64292;BME280;50628;51.008;13.658;2023-04-23T09:43:59;98984.88;;;17.42;100.00
64292;BME280;50628;51.008;13.658;2023-04-23T09:49:03;98986.75;;;17.27;100.00
64292;BME280;50628;51.008;13.658;2023-04-23T09:54:11;98985.50;;;17.08;100.00
64292;BME280;50628;51.008;13.658;2023-04-23T09:59:22;98978.34;;;17.17;100.00
64292;BME280;50628;51.008;13.658;2023-04-23T10:04:24;98971.94;;;17.26;100.00
64292;BME280;50628;51.008;13.658;2023-04-23T10:09:27;98979.47;;;17.29;100.00
64292;BME280;50628;51.008;13.658;2023-04-23T10:14:30;98980.53;;;17.35;100.00
64292;BME280;50628;51.008;13.658;2023-04-23T10:19:33;98968.75;;;17.30;99.23
64292;BME280;50628;51.008;13.658;2023-04-23T10:24:40;98969.63;;;17.16;100.00
64292;BME280;50628;51.008;13.658;2023-04-23T10:29:45;98977.88;;;16.98;100.00
64292;BME280;50628;51.008;13.658;2023-04-23T10:34:49;98967.13;;;16.93;100.00
64292;BME280;50628;51.008;13.658;2023-04-23T10:39:53;98964.16;;;17.18;100.00
64292;BME280;50628;51.008;13.658;2023-04-23T10:44:57;98973.34;;;17.22;100.00
64292;BME280;50628;51.008;13.658;2023-04-23T10:50:17;98952.97;;;17.30;100.00
64292;BME280;50628;51.008;13.658;2023-04-23T10:55:20;98968.78;;;17.52;100.00
64292;BME280;50628;51.008;13.658;2023-04-23T11:00:24;98965.84;;;17.04;100.00
64292;BME280;50628;51.008;13.658;2023-04-23T11:05:26;98974.19;;;16.78;100.00
64292;BME280;50628;51.008;13.658;2023-04-23T11:10:30;98970.47;;;16.72;100.00
64292;BME280;50628;51.008;13.658;2023-04-23T11:15:33;98959.34;;;16.85;100.00
64292;BME280;50628;51.008;13.658;2023-04-23T11:20:36;98955.81;;;16.78;100.00
64292;BME280;50628;51.008;13.658;2023-04-23T11:25:41;98960.44;;;17.27;100.00
64292;BME280;50628;51.008;13.658;2023-04-23T11:30:49;98976.78;;;17.22;100.00
64292;BME280;50628;51.008;13.658;2023-04-23T11:35:51;98974.25;;;17.72;100.00
64292;BME280;50628;51.008;13.658;2023-04-23T11:40:53;98968.34;;;17.91;100.00
64292;BME280;50628;51.008;13.658;2023-04-23T11:45:56;98973.34;;;17.80;100.00
64292;BME280;50628;51.008;13.658;2023-04-23T11:51:01;98966.25;;;18.02;100.00
64292;BME280;50628;51.008;13.658;2023-04-23T11:56:03;98968.84;;;17.37;100.00
64292;BME280;50628;51.008;13.658;2023-04-23T12:01:07;98974.47;;;17.34;100.00
64292;BME280;50628;51.008;13.658;2023-04-23T12:06:08;98962.13;;;16.98;100.00
64292;BME280;50628;51.008;13.658;2023-04-23T12:11:11;98965.66;;;17.05;100.00
64292;BME280;50628;51.008;13.658;2023-04-23T12:16:14;98969.22;;;16.83;100.00
64292;BME280;50628;51.008;13.658;2023-04-23T12:21:16;98966.75;;;17.11;100.00
64292;BME280;50628;51.008;13.658;2023-04-23T12:26:18;98970.47;;;17.38;100.00
64292;BME280;50628;51.008;13.658;2023-04-23T12:31:24;98970.72;;;17.65;100.00
64292;BME280;50628;51.008;13.658;2023-04-23T12:36:27;98961.81;;;18.37;100.00
64292;BME280;50628;51.008;13.658;2023-04-23T12:41:30;98957.94;;;18.05;100.00
64292;BME280;50628;51.008;13.658;2023-04-23T12:46:34;98951.31;;;19.33;97.79
64292;BME280;50628;51.008;13.658;2023-04-23T12:51:35;98941.84;;;19.85;90.66
64292;BME280;50628;51.008;13.658;2023-04-23T12:56:38;98939.94;;;19.39;89.17
64292;BME280;50628;51.008;13.658;2023-04-23T13:01:41;98933.03;;;19.32;87.77
64292;BME280;50628;51.008;13.658;2023-04-23T13:06:43;98927.00;;;18.83;87.88
64292;BME280;50628;51.008;13.658;2023-04-23T13:11:45;98922.03;;;18.67;88.06
64292;BME280;50628;51.008;13.658;2023-04-23T13:16:50;98913.25;;;18.53;89.85
64292;BME280;50628;51.008;13.658;2023-04-23T13:21:52;98912.28;;;18.60;89.42
64292;BME280;50628;51.008;13.658;2023-04-23T13:26:54;98906.16;;;18.53;91.50
64292;BME280;50628;51.008;13.658;2023-04-23T13:31:57;98890.22;;;18.68;88.58
64292;BME280;50628;51.008;13.658;2023-04-23T13:37:00;98880.06;;;19.27;84.74
64292;BME280;50628;51.008;13.658;2023-04-23T13:42:05;98872.44;;;20.43;79.76
64292;BME280;50628;51.008;13.658;2023-04-23T13:47:08;98868.38;;;20.41;76.62
64292;BME280;50628;51.008;13.658;2023-04-23T13:52:10;98861.00;;;19.84;77.67
64292;BME280;50628;51.008;13.658;2023-04-23T13:57:11;98860.16;;;19.37;79.31
64292;BME280;50628;51.008;13.658;2023-04-23T14:02:15;98856.53;;;19.32;79.18
64292;BME280;50628;51.008;13.658;2023-04-23T14:07:17;98853.50;;;19.41;77.75
64292;BME280;50628;51.008;13.658;2023-04-23T14:12:19;98840.91;;;19.23;79.21
64292;BME280;50628;51.008;13.658;2023-04-23T14:17:22;98832.97;;;19.30;79.95
64292;BME280;50628;51.008;13.658;2023-04-23T14:22:24;98834.38;;;19.19;86.51
64292;BME280;50628;51.008;13.658;2023-04-23T14:27:26;98844.28;;;18.91;89.13
64292;BME280;50628;51.008;13.658;2023-04-23T14:32:29;98833.72;;;18.36;92.52
64292;BME280;50628;51.008;13.658;2023-04-23T14:37:31;98821.72;;;18.27;95.91
64292;BME280;50628;51.008;13.658;2023-04-23T14:42:33;98820.56;;;17.94;96.34
64292;BME280;50628;51.008;13.658;2023-04-23T14:47:36;98822.56;;;17.64;100.00
64292;BME280;50628;51.008;13.658;2023-04-23T14:52:40;98812.56;;;17.81;99.74
64292;BME280;50628;51.008;13.658;2023-04-23T14:57:43;98805.59;;;17.73;99.54
64292;BME280;50628;51.008;13.658;2023-04-23T15:02:46;98811.66;;;17.67;98.62
64292;BME280;50628;51.008;13.658;2023-04-23T15:07:48;98810.16;;;17.58;100.00
64292;BME280;50628;51.008;13.658;2023-04-23T15:13:01;98797.41;;;17.83;100.00
64292;BME280;50628;51.008;13.658;2023-04-23T15:18:05;98794.03;;;17.96;99.50
64292;BME280;50628;51.008;13.658;2023-04-23T15:23:07;98783.72;;;18.01;99.01
64292;BME280;50628;51.008;13.658;2023-04-23T15:28:09;98796.47;;;17.98;98.58
64292;BME280;50628;51.008;13.658;2023-04-23T15:33:13;98795.66;;;17.97;99.92
64292;BME280;50628;51.008;13.658;2023-04-23T15:38:15;98788.00;;;18.02;100.00
64292;BME280;50628;51.008;13.658;2023-04-23T15:43:17;98787.78;;;18.04;100.00
64292;BME280;50628;51.008;13.658;2023-04-23T15:48:20;98764.25;;;18.44;100.00
64292;BME280;50628;51.008;13.658;2023-04-23T15:53:23;98768.50;;;18.38;100.00
64292;BME280;50628;51.008;13.658;2023-04-23T15:58:25;98770.19;;;18.11;100.00
64292;BME280;50628;51.008;13.658;2023-04-23T16:03:28;98765.28;;;18.01;100.00
64292;BME280;50628;51.008;13.658;2023-04-23T16:08:30;98751.91;;;17.96;100.00
64292;BME280;50628;51.008;13.658;2023-04-23T16:13:32;98754.53;;;17.89;100.00
64292;BME280;50628;51.008;13.658;2023-04-23T16:18:36;98733.81;;;17.80;100.00
64292;BME280;50628;51.008;13.658;2023-04-23T16:23:38;98734.84;;;17.85;100.00
64292;BME280;50628;51.008;13.658;2023-04-23T16:28:40;98724.66;;;17.76;100.00
64292;BME280;50628;51.008;13.658;2023-04-23T16:33:43;98714.47;;;18.01;100.00
64292;BME280;50628;51.008;13.658;2023-04-23T16:38:45;98717.38;;;17.78;100.00
64292;BME280;50628;51.008;13.658;2023-04-23T16:43:48;98703.19;;;17.79;100.00
64292;BME280;50628;51.008;13.658;2023-04-23T16:48:51;98705.53;;;17.95;100.00
64292;BME280;50628;51.008;13.658;2023-04-23T16:53:54;98704.88;;;17.80;100.00
64292;BME280;50628;51.008;13.658;2023-04-23T16:58:58;98696.56;;;17.83;100.00
64292;BME280;50628;51.008;13.658;2023-04-23T17:04:02;98689.94;;;17.59;100.00
64292;BME280;50628;51.008;13.658;2023-04-23T17:09:04;98690.50;;;17.82;100.00
64292;BME280;50628;51.008;13.658;2023-04-23T17:14:08;98692.34;;;17.82;100.00
64292;BME280;50628;51.008;13.658;2023-04-23T17:19:11;98685.34;;;17.33;100.00
64292;BME280;50628;51.008;13.658;2023-04-23T17:24:13;98678.34;;;17.12;100.00
64292;BME280;50628;51.008;13.658;2023-04-23T17:29:15;98673.16;;;17.25;100.00
64292;BME280;50628;51.008;13.658;2023-04-23T17:34:18;98668.19;;;17.37;100.00
64292;BME280;50628;51.008;13.658;2023-04-23T17:39:20;98663.44;;;17.25;100.00
64292;BME280;50628;51.008;13.658;2023-04-23T17:44:23;98663.66;;;16.96;100.00
64292;BME280;50628;51.008;13.658;2023-04-23T17:49:26;98659.09;;;16.83;100.00
64292;BME280;50628;51.008;13.658;2023-04-23T17:54:28;98656.41;;;16.76;100.00
64292;BME280;50628;51.008;13.658;2023-04-23T17:59:30;98671.38;;;16.76;100.00
64292;BME280;50628;51.008;13.658;2023-04-23T18:04:33;98675.19;;;16.73;100.00
64292;BME280;50628;51.008;13.658;2023-04-23T18:09:36;98682.06;;;16.53;100.00
64292;BME280;50628;51.008;13.658;2023-04-23T18:14:37;98684.31;;;16.34;100.00
64292;BME280;50628;51.008;13.658;2023-04-23T18:19:41;98687.50;;;16.30;100.00
64292;BME280;50628;51.008;13.658;2023-04-23T18:24:43;98698.88;;;16.15;100.00
64292;BME280;50628;51.008;13.658;2023-04-23T18:29:45;98701.88;;;15.97;100.00
64292;BME280;50628;51.008;13.658;2023-04-23T18:34:48;98708.41;;;15.87;100.00
64292;BME280;50628;51.008;13.658;2023-04-23T18:39:50;98711.00;;;15.57;100.00
64292;BME280;50628;51.008;13.658;2023-04-23T18:44:52;98715.16;;;15.36;100.00
64292;BME280;50628;51.008;13.658;2023-04-23T18:50:00;98718.31;;;15.47;100.00
64292;BME280;50628;51.008;13.658;2023-04-23T18:55:05;98735.59;;;15.41;100.00
64292;BME280;50628;51.008;13.658;2023-04-23T19:00:08;98738.41;;;15.40;100.00
64292;BME280;50628;51.008;13.658;2023-04-23T19:05:12;98728.53;;;15.42;100.00
64292;BME280;50628;51.008;13.658;2023-04-23T19:10:14;98724.72;;;15.14;100.00
64292;BME280;50628;51.008;13.658;2023-04-23T19:15:16;98729.59;;;14.80;100.00
64292;BME280;50628;51.008;13.658;2023-04-23T19:20:20;98722.94;;;14.69;100.00
64292;BME280;50628;51.008;13.658;2023-04-23T19:25:22;98712.63;;;14.44;100.00
64292;BME280;50628;51.008;13.658;2023-04-23T19:30:24;98716.41;;;14.11;100.00
64292;BME280;50628;51.008;13.658;2023-04-23T19:35:27;98711.88;;;14.04;100.00
64292;BME280;50628;51.008;13.658;2023-04-23T19:40:29;98700.81;;;13.94;100.00
64292;BME280;50628;51.008;13.658;2023-04-23T19:45:31;98688.13;;;13.75;100.00
64292;BME280;50628;51.008;13.658;2023-04-23T19:50:34;98685.59;;;13.50;100.00
64292;BME280;50628;51.008;13.658;2023-04-23T19:55:36;98691.97;;;13.48;100.00
64292;BME280;50628;51.008;13.658;2023-04-23T20:00:38;98684.69;;;13.27;100.00
64292;BME280;50628;51.008;13.658;2023-04-23T20:05:41;98679.13;;;13.13;100.00
64292;BME280;50628;51.008;13.658;2023-04-23T20:10:44;98673.91;;;12.97;100.00
64292;BME280;50628;51.008;13.658;2023-04-23T20:15:46;98671.16;;;12.98;100.00
64292;BME280;50628;51.008;13.658;2023-04-23T20:20:49;98664.13;;;12.74;100.00
64292;BME280;50628;51.008;13.658;2023-04-23T20:25:52;98665.59;;;12.44;100.00
64292;BME280;50628;51.008;13.658;2023-04-23T20:30:54;98660.84;;;12.23;100.00
64292;BME280;50628;51.008;13.658;2023-04-23T20:35:57;98666.22;;;12.22;100.00
64292;BME280;50628;51.008;13.658;2023-04-23T20:41:01;98659.19;;;12.14;100.00
64292;BME280;50628;51.008;13.658;2023-04-23T20:46:04;98646.66;;;12.18;100.00
64292;BME280;50628;51.008;13.658;2023-04-23T20:51:08;98638.19;;;12.16;100.00
64292;BME280;50628;51.008;13.658;2023-04-23T20:56:09;98638.34;;;12.14;100.00
64292;BME280;50628;51.008;13.658;2023-04-23T21:01:11;98627.69;;;11.99;100.00
64292;BME280;50628;51.008;13.658;2023-04-23T21:06:15;98631.94;;;11.92;100.00
64292;BME280;50628;51.008;13.658;2023-04-23T21:11:18;98632.09;;;11.90;100.00
64292;BME280;50628;51.008;13.658;2023-04-23T21:16:22;98640.06;;;11.89;100.00
64292;BME280;50628;51.008;13.658;2023-04-23T21:21:25;98639.34;;;11.79;100.00
64292;BME280;50628;51.008;13.658;2023-04-23T21:26:29;98644.06;;;11.67;100.00
64292;BME280;50628;51.008;13.658;2023-04-23T21:31:41;98643.50;;;11.47;100.00
64292;BME280;50628;51.008;13.658;2023-04-23T21:36:44;98648.00;;;11.37;100.00
64292;BME280;50628;51.008;13.658;2023-04-23T21:41:46;98645.47;;;11.19;100.00
64292;BME280;50628;51.008;13.658;2023-04-23T21:46:49;98637.31;;;11.14;100.00
64292;BME280;50628;51.008;13.658;2023-04-23T21:51:52;98620.06;;;10.87;100.00
64292;BME280;50628;51.008;13.658;2023-04-23T21:56:55;98624.53;;;10.76;100.00
64292;BME280;50628;51.008;13.658;2023-04-23T22:01:57;98623.69;;;10.76;100.00
64292;BME280;50628;51.008;13.658;2023-04-23T22:07:00;98622.91;;;10.57;100.00
64292;BME280;50628;51.008;13.658;2023-04-23T22:12:06;98612.06;;;10.62;100.00
64292;BME280;50628;51.008;13.658;2023-04-23T22:17:09;98606.50;;;10.57;100.00
64292;BME280;50628;51.008;13.658;2023-04-23T22:22:12;98604.00;;;10.73;100.00
64292;BME280;50628;51.008;13.658;2023-04-23T22:27:14;98598.28;;;10.70;100.00
64292;BME280;50628;51.008;13.658;2023-04-23T22:32:16;98595.59;;;10.35;100.00
64292;BME280;50628;51.008;13.658;2023-04-23T22:37:19;98582.38;;;10.29;100.00
64292;BME280;50628;51.008;13.658;2023-04-23T22:42:21;98578.38;;;10.34;100.00
64292;BME280;50628;51.008;13.658;2023-04-23T22:47:23;98567.19;;;10.24;100.00
64292;BME280;50628;51.008;13.658;2023-04-23T22:52:26;98562.66;;;10.26;100.00
64292;BME280;50628;51.008;13.658;2023-04-23T22:57:29;98554.41;;;10.13;100.00
64292;BME280;50628;51.008;13.658;2023-04-23T23:02:31;98537.13;;;10.22;100.00
64292;BME280;50628;51.008;13.658;2023-04-23T23:07:34;98539.03;;;10.19;100.00
64292;BME280;50628;51.008;13.658;2023-04-23T23:12:36;98532.28;;;10.27;100.00
64292;BME280;50628;51.008;13.658;2023-04-23T23:17:39;98532.28;;;10.45;100.00
64292;BME280;50628;51.008;13.658;2023-04-23T23:22:43;98533.53;;;10.40;100.00
64292;BME280;50628;51.008;13.658;2023-04-23T23:27:44;98515.22;;;10.06;100.00
64292;BME280;50628;51.008;13.658;2023-04-23T23:32:46;98513.19;;;10.36;100.00
64292;BME280;50628;51.008;13.658;2023-04-23T23:37:49;98512.97;;;10.29;100.00
64292;BME280;50628;51.008;13.658;2023-04-23T23:42:52;98505.28;;;10.02;100.00
64292;BME280;50628;51.008;13.658;2023-04-23T23:47:54;98500.88;;;10.02;100.00
64292;BME280;50628;51.008;13.658;2023-04-23T23:52:57;98493.53;;;10.15;100.00
64292;BME280;50628;51.008;13.658;2023-04-23T23:57:59;98490.03;;;10.07;100.00
